sensor_id;sensor_type;location;lat;lon;timestamp;P1;durP1;ratioP1;P2;durP2;ratioP2
42666;SDS011;28280;49.646;14.130;2023-04-24T00:08:10;3.30;;;2.22;;
42666;SDS011;28280;49.646;14.130;2023-04-24T00:18:31;3.75;;;1.88;;
42666;SDS011;28280;49.646;14.130;2023-04-24T00:28:52;2.53;;;1.60;;
42666;SDS011;28280;49.646;14.130;2023-04-24T00:39:14;2.47;;;1.73;;
42666;SDS011;28280;49.646;14.130;2023-04-24T00:49:36;2.65;;;1.45;;
42666;SDS011;28280;49.646;14.130;2023-04-24T00:59:57;3.08;;;1.33;;
42666;SDS011;28280;49.646;14.130;2023-04-24T01:10:18;1.73;;;1.17;;
42666;SDS011;28280;49.646;14.130;2023-04-24T01:20:41;1.25;;;0.90;;
42666;SDS011;28280;49.646;14.130;2023-04-24T01:31:05;1.65;;;1.00;;
42666;SDS011;28280;49.646;14.130;2023-04-24T01:41:27;1.45;;;0.98;;
42666;SDS011;28280;49.646;14.130;2023-04-24T01:51:48;2.35;;;1.08;;
42666;SDS011;28280;49.646;14.130;2023-04-24T02:02:09;2.15;;;1.10;;
42666;SDS011;28280;49.646;14.130;2023-04-24T02:12:30;1.52;;;0.90;;
42666;SDS011;28280;49.646;14.130;2023-04-24T02:22:52;1.17;;;0.95;;
42666;SDS011;28280;49.646;14.130;2023-04-24T02:33:14;1.92;;;1.10;;
42666;SDS011;28280;49.646;14.130;2023-04-24T02:43:35;2.00;;;1.05;;
42666;SDS011;28280;49.646;14.130;2023-04-24T02:53:57;1.60;;;1.05;;
42666;SDS011;28280;49.646;14.130;2023-04-24T03:04:18;1.33;;;1.00;;
42666;SDS011;28280;49.646;14.130;2023-04-24T03:14:41;1.88;;;1.17;;
42666;SDS011;28280;49.646;14.130;2023-04-24T03:25:03;1.17;;;0.98;;
42666;SDS011;28280;49.646;14.130;2023-04-24T03:35:25;1.65;;;1.00;;
42666;SDS011;28280;49.646;14.130;2023-04-24T03:45:47;2.05;;;1.00;;
42666;SDS011;28280;49.646;14.130;2023-04-24T03:56:10;2.10;;;1.05;;
42666;SDS011;28280;49.646;14.130;2023-04-24T04:06:34;1.23;;;1.00;;
42666;SDS011;28280;49.646;14.130;2023-04-24T04:16:58;3.22;;;1.33;;
42666;SDS011;28280;49.646;14.130;2023-04-24T04:27:20;2.08;;;1.13;;
42666;SDS011;28280;49.646;14.130;2023-04-24T04:37:50;1.20;;;1.00;;
42666;SDS011;28280;49.646;14.130;2023-04-24T04:58:51;1.63;;;1.20;;
42666;SDS011;28280;49.646;14.130;2023-04-24T05:09:12;1.33;;;1.15;;
42666;SDS011;28280;49.646;14.130;2023-04-24T05:19:43;2.20;;;1.13;;
42666;SDS011;28280;49.646;14.130;2023-04-24T05:30:07;1.83;;;1.30;;
42666;SDS011;28280;49.646;14.130;2023-04-24T05:40:29;2.67;;;1.40;;
42666;SDS011;28280;49.646;14.130;2023-04-24T05:50:50;1.48;;;1.13;;
42666;SDS011;28280;49.646;14.130;2023-04-24T06:01:13;1.83;;;1.08;;
42666;SDS011;28280;49.646;14.130;2023-04-24T06:11:42;2.00;;;1.45;;
42666;SDS011;28280;49.646;14.130;2023-04-24T06:22:05;1.70;;;1.20;;
42666;SDS011;28280;49.646;14.130;2023-04-24T06:32:30;2.10;;;1.15;;
42666;SDS011;28280;49.646;14.130;2023-04-24T06:42:53;1.80;;;1.20;;
42666;SDS011;28280;49.646;14.130;2023-04-24T06:53:14;1.73;;;1.23;;
42666;SDS011;28280;49.646;14.130;2023-04-24T07:03:35;1.40;;;1.10;;
42666;SDS011;28280;49.646;14.130;2023-04-24T07:13:57;2.00;;;1.48;;
42666;SDS011;28280;49.646;14.130;2023-04-24T07:24:19;1.75;;;1.05;;
42666;SDS011;28280;49.646;14.130;2023-04-24T07:34:42;1.95;;;1.35;;
42666;SDS011;28280;49.646;14.130;2023-04-24T07:45:03;2.60;;;1.20;;
42666;SDS011;28280;49.646;14.130;2023-04-24T07:55:25;1.35;;;1.20;;
42666;SDS011;28280;49.646;14.130;2023-04-24T08:05:48;1.50;;;1.20;;
42666;SDS011;28280;49.646;14.130;2023-04-24T08:16:09;1.73;;;1.30;;
42666;SDS011;28280;49.646;14.130;2023-04-24T08:26:31;1.65;;;1.00;;
42666;SDS011;28280;49.646;14.130;2023-04-24T08:36:52;1.60;;;0.93;;
42666;SDS011;28280;49.646;14.130;2023-04-24T08:47:14;2.17;;;1.08;;
42666;SDS011;28280;49.646;14.130;2023-04-24T08:57:36;2.47;;;1.50;;
42666;SDS011;28280;49.646;14.130;2023-04-24T09:08:01;1.60;;;1.10;;
42666;SDS011;28280;49.646;14.130;2023-04-24T09:18:23;1.45;;;1.00;;
42666;SDS011;28280;49.646;14.130;2023-04-24T09:28:44;1.75;;;0.90;;
42666;SDS011;28280;49.646;14.130;2023-04-24T09:39:13;1.20;;;0.93;;
42666;SDS011;28280;49.646;14.130;2023-04-24T09:49:41;1.05;;;0.90;;
42666;SDS011;28280;49.646;14.130;2023-04-24T10:00:05;1.38;;;0.98;;
42666;SDS011;28280;49.646;14.130;2023-04-24T10:10:31;2.72;;;1.20;;
42666;SDS011;28280;49.646;14.130;2023-04-24T10:20:54;1.60;;;0.90;;
42666;SDS011;28280;49.646;14.130;2023-04-24T10:31:17;1.25;;;0.90;;
42666;SDS011;28280;49.646;14.130;2023-04-24T10:41:38;1.17;;;0.90;;
42666;SDS011;28280;49.646;14.130;2023-04-24T10:52:00;1.08;;;0.85;;
42666;SDS011;28280;49.646;14.130;2023-04-24T11:02:35;1.13;;;0.85;;
42666;SDS011;28280;49.646;14.130;2023-04-24T11:12:57;1.15;;;0.88;;
42666;SDS011;28280;49.646;14.130;2023-04-24T11:23:18;2.58;;;1.10;;
42666;SDS011;28280;49.646;14.130;2023-04-24T11:33:40;2.55;;;0.75;;
42666;SDS011;28280;49.646;14.130;2023-04-24T11:44:01;0.90;;;0.70;;
42666;SDS011;28280;49.646;14.130;2023-04-24T11:54:24;0.98;;;0.80;;
42666;SDS011;28280;49.646;14.130;2023-04-24T12:04:46;1.98;;;0.85;;
42666;SDS011;28280;49.646;14.130;2023-04-24T12:15:08;0.75;;;0.63;;
42666;SDS011;28280;49.646;14.130;2023-04-24T12:25:31;5.15;;;2.72;;
42666;SDS011;28280;49.646;14.130;2023-04-24T12:35:54;111.10;;;32.15;;
42666;SDS011;28280;49.646;14.130;2023-04-24T12:46:16;90.35;;;28.45;;
42666;SDS011;28280;49.646;14.130;2023-04-24T12:56:40;47.67;;;15.68;;
42666;SDS011;28280;49.646;14.130;2023-04-24T13:07:01;26.23;;;9.57;;
42666;SDS011;28280;49.646;14.130;2023-04-24T13:17:22;18.92;;;7.03;;
42666;SDS011;28280;49.646;14.130;2023-04-24T13:27:44;14.20;;;5.45;;
42666;SDS011;28280;49.646;14.130;2023-04-24T13:38:05;13.80;;;4.70;;
42666;SDS011;28280;49.646;14.130;2023-04-24T13:48:31;10.68;;;3.80;;
42666;SDS011;28280;49.646;14.130;2023-04-24T13:58:53;6.65;;;3.17;;
42666;SDS011;28280;49.646;14.130;2023-04-24T14:09:17;7.00;;;2.30;;
42666;SDS011;28280;49.646;14.130;2023-04-24T14:19:38;4.32;;;1.83;;
42666;SDS011;28280;49.646;14.130;2023-04-24T14:29:59;3.78;;;1.50;;
42666;SDS011;28280;49.646;14.130;2023-04-24T14:40:20;3.58;;;1.60;;
42666;SDS011;28280;49.646;14.130;2023-04-24T14:51:02;2.22;;;1.38;;
42666;SDS011;28280;49.646;14.130;2023-04-24T15:01:23;2.05;;;1.20;;
42666;SDS011;28280;49.646;14.130;2023-04-24T15:11:47;2.63;;;1.40;;
42666;SDS011;28280;49.646;14.130;2023-04-24T15:22:09;1.50;;;1.00;;
42666;SDS011;28280;49.646;14.130;2023-04-24T15:32:32;1.55;;;1.05;;
42666;SDS011;28280;49.646;14.130;2023-04-24T15:42:53;1.65;;;1.00;;
42666;SDS011;28280;49.646;14.130;2023-04-24T15:53:15;1.33;;;1.00;;
42666;SDS011;28280;49.646;14.130;2023-04-24T16:03:42;1.55;;;0.90;;
42666;SDS011;28280;49.646;14.130;2023-04-24T16:14:04;2.30;;;1.13;;
42666;SDS011;28280;49.646;14.130;2023-04-24T16:24:27;1.40;;;1.00;;
42666;SDS011;28280;49.646;14.130;2023-04-24T16:34:49;1.73;;;1.10;;
42666;SDS011;28280;49.646;14.130;2023-04-24T16:45:10;3.30;;;1.30;;
42666;SDS011;28280;49.646;14.130;2023-04-24T16:55:31;1.88;;;1.23;;
42666;SDS011;28280;49.646;14.130;2023-04-24T17:05:53;1.38;;;1.10;;
42666;SDS011;28280;49.646;14.130;2023-04-24T17:16:14;2.00;;;1.20;;
42666;SDS011;28280;49.646;14.130;2023-04-24T17:26:36;2.03;;;1.20;;
42666;SDS011;28280;49.646;14.130;2023-04-24T17:36:57;2.85;;;1.45;;
42666;SDS011;28280;49.646;14.130;2023-04-24T17:47:18;3.28;;;1.60;;
42666;SDS011;28280;49.646;14.130;2023-04-24T17:57:42;2.75;;;1.88;;
42666;SDS011;28280;49.646;14.130;2023-04-24T18:08:03;3.25;;;1.88;;
42666;SDS011;28280;49.646;14.130;2023-04-24T18:18:24;4.97;;;1.70;;
42666;SDS011;28280;49.646;14.130;2023-04-24T18:28:46;2.25;;;1.42;;
42666;SDS011;28280;49.646;14.130;2023-04-24T18:39:08;2.00;;;1.35;;
42666;SDS011;28280;49.646;14.130;2023-04-24T18:49:29;4.05;;;1.48;;
42666;SDS011;28280;49.646;14.130;2023-04-24T18:59:50;3.35;;;1.40;;
42666;SDS011;28280;49.646;14.130;2023-04-24T19:10:12;2.03;;;1.60;;
42666;SDS011;28280;49.646;14.130;2023-04-24T19:20:34;1.98;;;1.30;;
42666;SDS011;28280;49.646;14.130;2023-04-24T19:30:55;1.52;;;1.20;;
42666;SDS011;28280;49.646;14.130;2023-04-24T19:41:18;2.03;;;1.25;;
42666;SDS011;28280;49.646;14.130;2023-04-24T19:51:39;2.35;;;1.10;;
42666;SDS011;28280;49.646;14.130;2023-04-24T20:02:02;1.83;;;1.20;;
42666;SDS011;28280;49.646;14.130;2023-04-24T20:12:24;2.25;;;1.30;;
42666;SDS011;28280;49.646;14.130;2023-04-24T20:22:46;2.28;;;1.00;;
42666;SDS011;28280;49.646;14.130;2023-04-24T20:33:07;2.28;;;1.10;;
42666;SDS011;28280;49.646;14.130;2023-04-24T20:43:28;2.10;;;1.10;;
42666;SDS011;28280;49.646;14.130;2023-04-24T20:53:50;1.67;;;1.10;;
42666;SDS011;28280;49.646;14.130;2023-04-24T21:04:11;1.73;;;1.40;;
42666;SDS011;28280;49.646;14.130;2023-04-24T21:14:32;1.65;;;1.15;;
42666;SDS011;28280;49.646;14.130;2023-04-24T21:24:53;1.88;;;1.17;;
42666;SDS011;28280;49.646;14.130;2023-04-24T21:35:15;2.20;;;1.52;;
42666;SDS011;28280;49.646;14.130;2023-04-24T21:45:36;1.60;;;1.30;;
42666;SDS011;28280;49.646;14.130;2023-04-24T21:55:58;2.25;;;1.48;;
42666;SDS011;28280;49.646;14.130;2023-04-24T22:06:19;2.17;;;1.65;;
42666;SDS011;28280;49.646;14.130;2023-04-24T22:16:40;2.90;;;1.35;;
42666;SDS011;28280;49.646;14.130;2023-04-24T22:27:02;2.10;;;1.50;;
42666;SDS011;28280;49.646;14.130;2023-04-24T22:37:23;2.80;;;1.40;;
42666;SDS011;28280;49.646;14.130;2023-04-24T22:47:45;3.67;;;1.50;;
42666;SDS011;28280;49.646;14.130;2023-04-24T22:58:06;2.78;;;1.80;;
42666;SDS011;28280;49.646;14.130;2023-04-24T23:08:27;4.75;;;1.70;;
42666;SDS011;28280;49.646;14.130;2023-04-24T23:18:50;2.55;;;1.50;;
42666;SDS011;28280;49.646;14.130;2023-04-24T23:29:11;2.70;;;1.60;;
42666;SDS011;28280;49.646;14.130;2023-04-24T23:39:32;2.65;;;1.70;;
42666;SDS011;28280;49.646;14.130;2023-04-24T23:49:53;3.22;;;1.70;;
